Terminal Aerodrome Forecast
Issued by NWS

Home | Current Version | Previous Version | Text Only | Print | Product List | Glossary On
Versions: 1 2 3 4 5 6 7 8 9 10 11 12 13 14 15 16 17 18 19
000
FTUS43 KGRB 240520
TAFAUW
TAF
KAUW 240520Z 2406/2506 VRB03KT P6SM BKN025
      TEMPO 2406/2410 SCT025 BKN140
     FM241300 00000KT P6SM SCT015 BKN120
     FM241800 24003KT P6SM SCT015 BKN050
     FM250200 21003KT P6SM BKN015=

USA.gov is the U.S. government's official web portal to all federal, state and local government web resources and services.